createdAt,value
2019-01-17T00:00:07.941Z,930.97
2019-01-17T00:01:07.996Z,930.95
2019-01-17T00:02:08.041Z,931.02
2019-01-17T00:03:08.077Z,931.04
2019-01-17T00:04:08.122Z,931.04
2019-01-17T00:05:08.217Z,931.07
2019-01-17T00:06:08.224Z,931.12
2019-01-17T00:07:08.271Z,931.20
2019-01-17T00:08:08.324Z,931.17
2019-01-17T00:09:08.348Z,931.23
2019-01-17T00:10:08.432Z,931.24
2019-01-17T00:11:08.508Z,931.32
2019-01-17T00:12:08.484Z,931.26
2019-01-17T00:13:08.554Z,931.31
2019-01-17T00:14:08.586Z,931.34
2019-01-17T00:15:08.624Z,931.32
2019-01-17T00:16:08.678Z,931.31
2019-01-17T00:17:08.719Z,931.30
2019-01-17T00:18:08.772Z,931.29
2019-01-17T00:19:08.802Z,931.32
2019-01-17T00:20:08.858Z,931.31
2019-01-17T00:21:08.925Z,931.31
2019-01-17T00:22:08.938Z,931.31
2019-01-17T00:23:09.002Z,931.32
2019-01-17T00:24:09.080Z,931.35
2019-01-17T00:25:09.095Z,931.33
2019-01-17T00:26:09.147Z,931.34
2019-01-17T00:27:09.186Z,931.40
2019-01-17T00:28:09.239Z,931.36
2019-01-17T00:29:09.265Z,931.38
2019-01-17T00:30:09.330Z,931.40
2019-01-17T00:31:09.357Z,931.47
2019-01-17T00:32:09.429Z,931.43
2019-01-17T00:33:09.460Z,931.40
2019-01-17T00:34:09.541Z,931.37
2019-01-17T00:35:09.534Z,931.42
2019-01-17T00:36:09.615Z,931.47
2019-01-17T00:37:09.650Z,931.45
2019-01-17T00:38:09.722Z,931.52
2019-01-17T00:39:09.731Z,931.44
2019-01-17T00:40:09.783Z,931.48
2019-01-17T00:41:09.836Z,931.50
2019-01-17T00:42:09.856Z,931.54
2019-01-17T00:43:09.910Z,931.55
2019-01-17T00:44:09.970Z,931.49
2019-01-17T00:45:10.009Z,931.47
2019-01-17T00:46:10.067Z,931.50
2019-01-17T00:47:10.102Z,931.48
2019-01-17T00:48:10.148Z,931.48
2019-01-17T00:49:10.190Z,931.49
2019-01-17T00:50:10.253Z,931.52
2019-01-17T00:51:10.320Z,931.55
2019-01-17T00:52:10.329Z,931.55
2019-01-17T00:53:10.461Z,931.52
2019-01-17T00:54:10.421Z,931.54
2019-01-17T00:55:10.478Z,931.52
2019-01-17T00:56:10.519Z,931.58
2019-01-17T00:57:10.576Z,931.50
2019-01-17T00:58:10.705Z,931.50
2019-01-17T00:59:10.651Z,931.47
2019-01-17T01:00:10.714Z,931.43
2019-01-17T01:01:10.760Z,931.45
2019-01-17T01:02:10.794Z,931.38
2019-01-17T01:03:10.850Z,931.40
2019-01-17T01:04:10.899Z,931.36
2019-01-17T01:05:10.928Z,931.38
2019-01-17T01:06:10.966Z,931.39
2019-01-17T01:07:11.021Z,931.42
2019-01-17T01:08:11.050Z,931.26
2019-01-17T01:09:11.137Z,931.29
2019-01-17T01:10:11.171Z,931.28
2019-01-17T01:11:11.222Z,931.28
2019-01-17T01:12:11.234Z,931.25
2019-01-17T01:13:11.313Z,931.27
2019-01-17T01:14:11.346Z,931.31
2019-01-17T01:15:11.399Z,931.27
2019-01-17T01:16:11.455Z,931.21
2019-01-17T01:17:11.491Z,931.22
2019-01-17T01:18:11.578Z,931.17
2019-01-17T01:19:11.586Z,931.15
2019-01-17T01:20:11.644Z,931.12
2019-01-17T01:21:11.714Z,931.07
2019-01-17T01:22:11.738Z,931.11
2019-01-17T01:23:11.759Z,931.08
2019-01-17T01:24:15.445Z,931.06
2019-01-17T01:25:11.864Z,931.07
2019-01-17T01:26:11.907Z,931.08
2019-01-17T01:27:11.933Z,931.05
2019-01-17T01:28:12.016Z,931.03
2019-01-17T01:29:12.048Z,931.10
2019-01-17T01:30:12.093Z,931.09
2019-01-17T01:31:12.118Z,931.06
2019-01-17T01:32:12.179Z,931.10
2019-01-17T01:33:12.219Z,931.14
2019-01-17T01:34:12.256Z,931.16
2019-01-17T01:35:12.321Z,931.15
2019-01-17T01:36:12.396Z,931.13
2019-01-17T01:37:12.437Z,931.07
2019-01-17T01:38:12.466Z,931.07
2019-01-17T01:39:12.517Z,930.98
2019-01-17T01:40:12.558Z,931.04
2019-01-17T01:41:12.599Z,930.99
2019-01-17T01:42:12.645Z,931.00
2019-01-17T01:43:12.693Z,930.96
2019-01-17T01:44:12.740Z,930.95
2019-01-17T01:45:12.778Z,930.92
2019-01-17T01:46:12.816Z,931.01
2019-01-17T01:47:12.880Z,930.93
2019-01-17T01:48:12.925Z,930.94
2019-01-17T01:49:12.970Z,930.98
2019-01-17T01:50:13.016Z,930.94
2019-01-17T01:51:13.058Z,930.98
2019-01-17T01:52:13.107Z,930.97
2019-01-17T01:53:13.199Z,930.97
2019-01-17T01:54:13.203Z,930.98
2019-01-17T01:55:13.277Z,930.98
2019-01-17T01:56:13.282Z,930.97
2019-01-17T01:57:13.312Z,930.96
2019-01-17T01:58:13.418Z,930.98
2019-01-17T01:59:13.436Z,930.95
2019-01-17T02:00:13.491Z,930.90
2019-01-17T02:01:13.525Z,930.88
2019-01-17T02:02:13.569Z,930.85
2019-01-17T02:03:13.628Z,930.85
2019-01-17T02:04:13.661Z,930.86
2019-01-17T02:05:13.708Z,930.83
2019-01-17T02:06:13.752Z,930.78
2019-01-17T02:07:13.797Z,930.83
2019-01-17T02:08:13.851Z,930.85
2019-01-17T02:09:13.929Z,930.86
2019-01-17T02:10:13.949Z,930.84
2019-01-17T02:11:14.021Z,930.82
2019-01-17T02:12:14.033Z,930.86
2019-01-17T02:13:14.056Z,930.82
2019-01-17T02:14:14.119Z,930.88
2019-01-17T02:15:14.178Z,930.80
2019-01-17T02:16:14.255Z,930.87
2019-01-17T02:17:14.275Z,930.84
2019-01-17T02:18:14.354Z,930.81
2019-01-17T02:19:14.347Z,930.80
2019-01-17T02:20:14.407Z,930.82
2019-01-17T02:21:14.440Z,930.78
2019-01-17T02:22:14.532Z,930.79
2019-01-17T02:23:14.531Z,930.81
2019-01-17T02:24:14.584Z,930.77
2019-01-17T02:25:14.624Z,930.76
2019-01-17T02:26:14.715Z,930.71
2019-01-17T02:27:14.760Z,930.71
2019-01-17T02:28:14.788Z,930.72
2019-01-17T02:29:14.837Z,930.71
2019-01-17T02:30:14.874Z,930.72
2019-01-17T02:31:14.928Z,930.68
2019-01-17T02:32:15.007Z,930.70
2019-01-17T02:33:15.003Z,930.71
2019-01-17T02:34:15.052Z,930.71
2019-01-17T02:35:15.084Z,930.71
2019-01-17T02:36:15.154Z,930.74
2019-01-17T02:37:15.171Z,930.69
2019-01-17T02:38:15.214Z,930.73
2019-01-17T02:39:15.304Z,930.76
2019-01-17T02:40:15.331Z,930.73
2019-01-17T02:41:15.372Z,930.75
2019-01-17T02:42:15.424Z,930.73
2019-01-17T02:43:15.467Z,930.71
2019-01-17T02:44:15.515Z,930.70
2019-01-17T02:45:15.567Z,930.61
2019-01-17T02:46:15.611Z,930.63
2019-01-17T02:47:15.668Z,930.64
2019-01-17T02:48:15.691Z,930.59
2019-01-17T02:49:15.741Z,930.57
2019-01-17T02:50:15.782Z,930.53
2019-01-17T02:51:15.826Z,930.51
2019-01-17T02:52:15.863Z,930.52
2019-01-17T02:53:15.964Z,930.44
2019-01-17T02:54:15.983Z,930.41
2019-01-17T02:55:16.043Z,930.41
2019-01-17T02:56:16.141Z,930.42
2019-01-17T02:57:16.120Z,930.35
2019-01-17T02:58:16.164Z,930.33
2019-01-17T02:59:16.203Z,930.30
2019-01-17T03:00:16.259Z,930.31
2019-01-17T03:01:16.312Z,930.29
2019-01-17T03:02:16.352Z,930.26
2019-01-17T03:03:16.388Z,930.25
2019-01-17T03:04:16.428Z,930.22
2019-01-17T03:05:16.498Z,930.25
2019-01-17T03:06:16.543Z,930.21
2019-01-17T03:07:16.571Z,930.17
2019-01-17T03:08:16.642Z,930.18
2019-01-17T03:09:16.673Z,930.21
2019-01-17T03:10:16.766Z,930.13
2019-01-17T03:11:16.765Z,930.16
2019-01-17T03:12:16.809Z,930.16
2019-01-17T03:13:16.874Z,930.13
2019-01-17T03:14:16.913Z,930.13
2019-01-17T03:15:16.952Z,930.08
2019-01-17T03:16:17.008Z,930.09
2019-01-17T03:17:17.043Z,930.07
2019-01-17T03:18:17.079Z,930.11
2019-01-17T03:19:17.159Z,930.05
2019-01-17T03:20:17.208Z,930.01
2019-01-17T03:21:17.245Z,930.01
2019-01-17T03:22:17.269Z,930.01
2019-01-17T03:23:17.333Z,929.97
2019-01-17T03:24:17.392Z,929.98
2019-01-17T03:25:17.409Z,929.94
2019-01-17T03:26:17.619Z,929.92
2019-01-17T03:27:17.578Z,929.90
2019-01-17T03:28:17.563Z,929.89
2019-01-17T03:29:17.603Z,929.91
2019-01-17T03:30:17.740Z,929.93
2019-01-17T03:31:17.707Z,929.84
2019-01-17T03:32:17.745Z,929.88
2019-01-17T03:33:17.788Z,929.87
2019-01-17T03:34:17.878Z,929.89
2019-01-17T03:35:17.888Z,929.84
2019-01-17T03:36:17.924Z,929.83
2019-01-17T03:37:17.985Z,929.84
2019-01-17T03:38:18.037Z,929.82
2019-01-17T03:39:18.106Z,929.81
2019-01-17T03:40:18.108Z,929.83
2019-01-17T03:41:18.194Z,929.76
2019-01-17T03:42:18.237Z,929.81
2019-01-17T03:43:18.254Z,929.77
2019-01-17T03:44:18.294Z,929.74
2019-01-17T03:45:18.349Z,929.73
2019-01-17T03:46:18.377Z,929.75
2019-01-17T03:47:18.435Z,929.66
2019-01-17T03:48:18.490Z,929.71
2019-01-17T03:49:18.526Z,929.64
2019-01-17T03:50:18.564Z,929.59
2019-01-17T03:51:18.666Z,929.63
2019-01-17T03:52:18.667Z,929.56
2019-01-17T03:53:18.732Z,929.52
2019-01-17T03:54:18.759Z,929.53
2019-01-17T03:55:18.809Z,929.50
2019-01-17T03:56:21.899Z,929.54
2019-01-17T03:57:19.007Z,929.53
2019-01-17T03:58:18.956Z,929.53
2019-01-17T03:59:18.989Z,929.51
2019-01-17T04:00:19.022Z,929.50
2019-01-17T04:01:19.065Z,929.52
2019-01-17T04:02:19.123Z,929.52
2019-01-17T04:03:19.162Z,929.53
2019-01-17T04:04:19.250Z,929.53
2019-01-17T04:05:19.281Z,929.48
2019-01-17T04:06:19.311Z,929.44
2019-01-17T04:07:19.364Z,929.45
2019-01-17T04:08:19.392Z,929.44
2019-01-17T04:09:19.457Z,929.44
2019-01-17T04:10:19.516Z,929.41
2019-01-17T04:11:19.552Z,929.42
2019-01-17T04:12:19.577Z,929.43
2019-01-17T04:13:19.738Z,929.42
2019-01-17T04:14:19.674Z,929.42
2019-01-17T04:15:19.738Z,929.40
2019-01-17T04:16:19.797Z,929.44
2019-01-17T04:17:19.830Z,929.36
2019-01-17T04:18:19.899Z,929.37
2019-01-17T04:19:19.903Z,929.41
2019-01-17T04:20:19.977Z,929.41
2019-01-17T04:21:20.057Z,929.34
2019-01-17T04:22:20.041Z,929.30
2019-01-17T04:23:20.096Z,929.24
2019-01-17T04:24:20.130Z,929.30
2019-01-17T04:25:20.174Z,929.20
2019-01-17T04:26:20.239Z,929.17
2019-01-17T04:27:20.283Z,929.15
2019-01-17T04:28:20.313Z,929.11
2019-01-17T04:29:20.411Z,929.08
2019-01-17T04:30:20.415Z,929.01
2019-01-17T04:31:20.466Z,929.01
2019-01-17T04:32:20.522Z,929.01
2019-01-17T04:33:20.581Z,929.02
2019-01-17T04:34:20.605Z,929.00
2019-01-17T04:35:20.635Z,929.00
2019-01-17T04:36:20.689Z,928.97
2019-01-17T04:37:20.738Z,928.94
2019-01-17T04:38:20.785Z,928.91
2019-01-17T04:39:20.838Z,928.88
2019-01-17T04:40:20.858Z,928.93
2019-01-17T04:41:20.928Z,928.90
2019-01-17T04:42:20.970Z,928.91
2019-01-17T04:43:21.042Z,928.86
2019-01-17T04:44:21.114Z,928.83
2019-01-17T04:45:21.084Z,928.79
2019-01-17T04:46:21.158Z,928.81
2019-01-17T04:47:21.219Z,928.76
2019-01-17T04:48:21.251Z,928.76
2019-01-17T04:49:21.322Z,928.79
2019-01-17T04:50:21.347Z,928.83
2019-01-17T04:51:21.394Z,928.86
2019-01-17T04:52:21.432Z,928.86
2019-01-17T04:53:21.481Z,928.82
2019-01-17T04:54:21.518Z,928.83
2019-01-17T04:55:21.582Z,928.84
2019-01-17T04:56:21.612Z,928.85
2019-01-17T04:57:21.648Z,928.80
2019-01-17T04:58:21.726Z,928.77
2019-01-17T04:59:21.745Z,928.79
2019-01-17T05:00:21.808Z,928.77
2019-01-17T05:01:21.832Z,928.76
2019-01-17T05:02:21.881Z,928.77
2019-01-17T05:03:21.950Z,928.79
2019-01-17T05:04:21.989Z,928.81
2019-01-17T05:05:22.139Z,928.80
2019-01-17T05:06:22.065Z,928.74
2019-01-17T05:07:22.123Z,928.77
2019-01-17T05:08:22.180Z,928.74
2019-01-17T05:09:22.219Z,928.71
2019-01-17T05:10:22.265Z,928.67
2019-01-17T05:11:22.312Z,928.61
2019-01-17T05:12:22.357Z,928.65
2019-01-17T05:13:22.427Z,928.61
2019-01-17T05:14:22.446Z,928.57
2019-01-17T05:15:22.489Z,928.57
2019-01-17T05:16:22.528Z,928.52
2019-01-17T05:17:22.582Z,928.44
2019-01-17T05:18:22.639Z,928.43
2019-01-17T05:19:22.672Z,928.41
2019-01-17T05:20:22.705Z,928.39
2019-01-17T05:21:22.756Z,928.35
2019-01-17T05:22:22.839Z,928.35
2019-01-17T05:23:22.846Z,928.37
2019-01-17T05:24:22.898Z,928.29
2019-01-17T05:25:22.963Z,928.32
2019-01-17T05:26:22.975Z,928.29
2019-01-17T05:27:23.119Z,928.33
2019-01-17T05:28:23.187Z,928.31
2019-01-17T05:29:23.149Z,928.25
2019-01-17T05:30:23.175Z,928.27
2019-01-17T05:31:23.237Z,928.18
2019-01-17T05:32:23.290Z,928.19
2019-01-17T05:33:23.338Z,928.14
2019-01-17T05:34:23.386Z,928.10
2019-01-17T05:35:23.438Z,928.07
2019-01-17T05:36:23.441Z,928.03
2019-01-17T05:37:23.507Z,928.02
2019-01-17T05:38:23.552Z,927.98
2019-01-17T05:39:23.638Z,927.98
2019-01-17T05:40:23.639Z,927.98
2019-01-17T05:41:23.717Z,927.95
2019-01-17T05:42:23.744Z,927.88
2019-01-17T05:43:23.796Z,927.95
2019-01-17T05:44:23.813Z,927.90
2019-01-17T05:45:23.874Z,927.87
2019-01-17T05:46:23.959Z,927.92
2019-01-17T05:47:23.986Z,927.87
2019-01-17T05:48:24.009Z,927.85
2019-01-17T05:49:24.232Z,927.84
2019-01-17T05:50:24.115Z,927.81
2019-01-17T05:51:24.149Z,927.80
2019-01-17T05:52:24.208Z,927.84
2019-01-17T05:53:24.249Z,927.78
2019-01-17T05:54:24.290Z,927.77
2019-01-17T05:55:24.342Z,927.78
2019-01-17T05:56:24.401Z,927.82
2019-01-17T05:57:24.445Z,927.76
2019-01-17T05:58:24.494Z,927.75
2019-01-17T05:59:24.543Z,927.82
2019-01-17T06:00:24.560Z,927.80
2019-01-17T06:01:24.635Z,927.77
2019-01-17T06:02:24.668Z,927.78
2019-01-17T06:03:24.717Z,927.80
2019-01-17T06:04:24.744Z,927.75
2019-01-17T06:05:24.800Z,927.74
2019-01-17T06:06:24.865Z,927.71
2019-01-17T06:07:24.928Z,927.68
2019-01-17T06:08:24.947Z,927.68
2019-01-17T06:09:25.002Z,927.70
2019-01-17T06:10:25.075Z,927.66
2019-01-17T06:11:25.243Z,927.67
2019-01-17T06:12:25.132Z,927.68
2019-01-17T06:13:25.189Z,927.73
2019-01-17T06:14:25.214Z,927.66
2019-01-17T06:15:25.296Z,927.68
2019-01-17T06:16:25.332Z,927.67
2019-01-17T06:17:25.360Z,927.73
2019-01-17T06:18:25.411Z,927.69
2019-01-17T06:19:25.476Z,927.77
2019-01-17T06:20:25.523Z,927.75
2019-01-17T06:21:25.574Z,927.78
2019-01-17T06:22:25.614Z,927.79
2019-01-17T06:23:25.799Z,927.79
2019-01-17T06:24:25.690Z,927.80
2019-01-17T06:25:28.160Z,927.80
2019-01-17T06:26:25.792Z,927.79
2019-01-17T06:27:25.822Z,927.76
2019-01-17T06:28:25.879Z,927.79
2019-01-17T06:29:25.928Z,927.80
2019-01-17T06:30:25.980Z,927.80
2019-01-17T06:31:26.007Z,927.78
2019-01-17T06:32:26.074Z,927.76
2019-01-17T06:33:26.128Z,927.78
2019-01-17T06:34:26.195Z,927.74
2019-01-17T06:35:26.318Z,927.72
2019-01-17T06:36:26.260Z,927.71
2019-01-17T06:37:26.288Z,927.71
2019-01-17T06:38:26.352Z,927.66
2019-01-17T06:39:26.387Z,927.70
2019-01-17T06:40:26.460Z,927.64
2019-01-17T06:41:26.502Z,927.58
2019-01-17T06:42:26.536Z,927.60
2019-01-17T06:43:26.580Z,927.58
2019-01-17T06:44:26.612Z,927.60
2019-01-17T06:45:26.685Z,927.61
2019-01-17T06:46:26.727Z,927.63
2019-01-17T06:47:26.994Z,927.62
2019-01-17T06:48:26.813Z,927.65
2019-01-17T06:49:26.872Z,927.61
2019-01-17T06:50:26.925Z,927.64
2019-01-17T06:51:26.957Z,927.66
2019-01-17T06:52:27.012Z,927.66
2019-01-17T06:53:27.115Z,927.72
2019-01-17T06:54:27.107Z,927.73
2019-01-17T06:55:27.143Z,927.74
2019-01-17T06:56:27.183Z,927.74
2019-01-17T06:57:27.232Z,927.73
2019-01-17T06:58:27.440Z,927.74
2019-01-17T06:59:27.342Z,927.71
2019-01-17T07:00:27.389Z,927.73
2019-01-17T07:01:27.420Z,927.71
2019-01-17T07:02:27.492Z,927.69
2019-01-17T07:03:27.538Z,927.70
2019-01-17T07:04:27.566Z,927.69
2019-01-17T07:05:27.629Z,927.70
2019-01-17T07:06:27.673Z,927.65
2019-01-17T07:07:27.719Z,927.70
2019-01-17T07:08:27.745Z,927.65
2019-01-17T07:09:27.811Z,927.67
2019-01-17T07:10:27.867Z,927.69
2019-01-17T07:11:27.920Z,927.66
2019-01-17T07:12:27.947Z,927.67
2019-01-17T07:13:28.013Z,927.68
2019-01-17T07:14:28.032Z,927.69
2019-01-17T07:15:28.073Z,927.70
2019-01-17T07:16:28.162Z,927.69
2019-01-17T07:17:28.198Z,927.70
2019-01-17T07:18:28.233Z,927.69
2019-01-17T07:19:28.281Z,927.69
2019-01-17T07:20:28.403Z,927.70
2019-01-17T07:21:28.375Z,927.68
2019-01-17T07:22:28.433Z,927.69
2019-01-17T07:23:28.458Z,927.69
2019-01-17T07:24:28.520Z,927.68
2019-01-17T07:25:28.557Z,927.66
2019-01-17T07:26:28.617Z,927.68
2019-01-17T07:27:28.710Z,927.68
2019-01-17T07:28:28.694Z,927.69
2019-01-17T07:29:28.750Z,927.70
2019-01-17T07:30:28.783Z,927.71
2019-01-17T07:31:28.845Z,927.69
2019-01-17T07:32:28.996Z,927.66
2019-01-17T07:33:28.948Z,927.68
2019-01-17T07:34:29.000Z,927.66
2019-01-17T07:35:29.031Z,927.68
2019-01-17T07:36:29.078Z,927.70
2019-01-17T07:37:29.149Z,927.69
2019-01-17T07:38:29.175Z,927.74
2019-01-17T07:39:29.238Z,927.71
2019-01-17T07:40:29.274Z,927.71
2019-01-17T07:41:29.322Z,927.75
2019-01-17T07:42:29.355Z,927.77
2019-01-17T07:43:29.397Z,927.75
2019-01-17T07:44:29.465Z,927.73
2019-01-17T07:45:29.493Z,927.77
2019-01-17T07:46:29.550Z,927.75
2019-01-17T07:47:29.582Z,927.76
2019-01-17T07:48:29.672Z,927.76
2019-01-17T07:49:29.736Z,927.76
2019-01-17T07:50:29.750Z,927.74
2019-01-17T07:51:29.801Z,927.71
2019-01-17T07:52:30.402Z,927.72
2019-01-17T07:53:29.892Z,927.69
2019-01-17T07:54:30.033Z,927.75
2019-01-17T07:55:29.999Z,927.75
2019-01-17T07:56:30.012Z,927.73
2019-01-17T07:57:30.072Z,927.77
2019-01-17T07:58:30.132Z,927.76
2019-01-17T07:59:30.182Z,927.81
2019-01-17T08:00:30.204Z,927.76
2019-01-17T08:01:30.277Z,927.81
2019-01-17T08:02:30.315Z,927.80
2019-01-17T08:03:30.353Z,927.79
2019-01-17T08:04:30.418Z,927.82
2019-01-17T08:05:30.458Z,927.78
2019-01-17T08:06:30.601Z,927.81
2019-01-17T08:07:30.530Z,927.84
2019-01-17T08:08:30.601Z,927.83
2019-01-17T08:09:30.637Z,927.80
2019-01-17T08:10:30.679Z,927.79
2019-01-17T08:11:30.757Z,927.79
2019-01-17T08:12:30.787Z,927.80
2019-01-17T08:13:30.834Z,927.79
2019-01-17T08:14:30.888Z,927.77
2019-01-17T08:15:30.927Z,927.77
2019-01-17T08:16:30.961Z,927.76
2019-01-17T08:17:31.058Z,927.78
2019-01-17T08:18:31.075Z,927.80
2019-01-17T08:19:31.153Z,927.82
2019-01-17T08:20:31.153Z,927.83
2019-01-17T08:21:31.237Z,927.86
2019-01-17T08:22:31.254Z,927.87
2019-01-17T08:23:34.774Z,927.85
2019-01-17T08:24:31.366Z,927.87
2019-01-17T08:25:31.402Z,927.88
2019-01-17T08:26:31.420Z,927.91
2019-01-17T08:27:31.503Z,927.95
2019-01-17T08:28:31.557Z,927.97
2019-01-17T08:29:31.586Z,928.07
2019-01-17T08:30:31.641Z,928.06
2019-01-17T08:31:31.694Z,928.08
2019-01-17T08:32:31.716Z,928.08
2019-01-17T08:33:31.816Z,928.12
2019-01-17T08:34:31.831Z,928.12
2019-01-17T08:35:31.868Z,928.15
2019-01-17T08:36:31.966Z,928.17
2019-01-17T08:37:31.981Z,928.15
2019-01-17T08:38:32.054Z,928.18
2019-01-17T08:39:32.108Z,928.14
2019-01-17T08:40:32.096Z,928.14
2019-01-17T08:41:32.141Z,928.12
2019-01-17T08:42:32.216Z,928.13
2019-01-17T08:43:32.347Z,928.11
2019-01-17T08:44:32.325Z,928.09
2019-01-17T08:45:32.346Z,928.08
2019-01-17T08:46:32.382Z,928.11
2019-01-17T08:47:32.428Z,928.14
2019-01-17T08:48:32.475Z,928.17
2019-01-17T08:49:32.539Z,928.23
2019-01-17T08:50:32.564Z,928.24
2019-01-17T08:51:32.650Z,928.27
2019-01-17T08:52:32.675Z,928.34
2019-01-17T08:53:32.736Z,928.30
2019-01-17T08:54:32.780Z,928.35
2019-01-17T08:55:32.818Z,928.33
2019-01-17T08:56:32.876Z,928.32
2019-01-17T08:57:32.909Z,928.33
2019-01-17T08:58:32.954Z,928.32
2019-01-17T08:59:33.018Z,928.30
2019-01-17T09:00:33.028Z,928.32
2019-01-17T09:01:33.205Z,928.28
2019-01-17T09:02:33.145Z,928.31
2019-01-17T09:03:33.171Z,928.29
2019-01-17T09:04:33.234Z,928.30
2019-01-17T09:05:33.297Z,928.29
2019-01-17T09:06:33.367Z,928.31
2019-01-17T09:07:33.367Z,928.32
2019-01-17T09:08:33.419Z,928.36
2019-01-17T09:09:33.485Z,928.35
2019-01-17T09:10:33.512Z,928.42
2019-01-17T09:11:33.564Z,928.49
2019-01-17T09:12:33.610Z,928.50
2019-01-17T09:13:33.657Z,928.53
2019-01-17T09:14:33.757Z,928.56
2019-01-17T09:15:33.790Z,928.55
2019-01-17T09:16:33.794Z,928.54
2019-01-17T09:17:33.835Z,928.57
2019-01-17T09:18:33.945Z,928.55
2019-01-17T09:19:33.960Z,928.57
2019-01-17T09:20:34.138Z,928.57
2019-01-17T09:21:34.047Z,928.59
2019-01-17T09:22:34.117Z,928.62
2019-01-17T09:23:34.137Z,928.64
2019-01-17T09:24:34.184Z,928.61
2019-01-17T09:25:34.234Z,928.61
2019-01-17T09:26:34.268Z,928.62
2019-01-17T09:27:34.342Z,928.60
2019-01-17T09:28:34.394Z,928.59
2019-01-17T09:29:34.465Z,928.60
2019-01-17T09:30:34.469Z,928.61
2019-01-17T09:31:34.530Z,928.62
2019-01-17T09:32:34.623Z,928.57
2019-01-17T09:33:34.626Z,928.57
2019-01-17T09:34:34.671Z,928.70
2019-01-17T09:35:34.715Z,928.72
2019-01-17T09:36:34.761Z,928.70
2019-01-17T09:37:34.806Z,928.78
2019-01-17T09:38:34.848Z,928.81
2019-01-17T09:39:34.959Z,928.81
2019-01-17T09:40:34.971Z,928.76
2019-01-17T09:41:34.998Z,928.78
2019-01-17T09:42:35.029Z,928.73
2019-01-17T09:43:35.111Z,928.73
2019-01-17T09:44:35.168Z,928.67
2019-01-17T09:45:35.242Z,928.73
2019-01-17T09:46:35.376Z,928.73
2019-01-17T09:47:35.290Z,928.75
2019-01-17T09:48:35.325Z,928.75
2019-01-17T09:49:35.375Z,928.74
2019-01-17T09:50:35.454Z,928.72
2019-01-17T09:51:35.494Z,928.69
2019-01-17T09:52:35.575Z,928.68
2019-01-17T09:53:35.627Z,928.72
2019-01-17T09:54:35.702Z,928.77
2019-01-17T09:55:35.669Z,928.76
2019-01-17T09:56:35.739Z,928.79
2019-01-17T09:57:35.777Z,928.81
2019-01-17T09:58:35.860Z,928.83
2019-01-17T09:59:35.854Z,928.86
2019-01-17T10:00:35.934Z,928.83
2019-01-17T10:01:35.978Z,928.87
2019-01-17T10:02:36.012Z,928.93
2019-01-17T10:03:36.115Z,928.94
2019-01-17T10:04:36.135Z,928.93
2019-01-17T10:05:36.183Z,929.03
2019-01-17T10:06:36.282Z,929.02
2019-01-17T10:07:36.282Z,929.01
2019-01-17T10:08:36.349Z,929.02
2019-01-17T10:09:36.387Z,929.08
2019-01-17T10:10:36.486Z,929.12
2019-01-17T10:11:36.489Z,929.11
2019-01-17T10:12:36.552Z,929.09
2019-01-17T10:13:36.599Z,929.13
2019-01-17T10:14:36.660Z,929.10
2019-01-17T10:15:36.717Z,929.15
2019-01-17T10:16:36.757Z,929.15
2019-01-17T10:17:36.831Z,929.17
2019-01-17T10:18:36.926Z,929.15
2019-01-17T10:19:36.912Z,929.19
2019-01-17T10:20:36.982Z,929.23
2019-01-17T10:21:37.075Z,929.24
2019-01-17T10:22:37.072Z,929.25
2019-01-17T10:23:37.135Z,929.27
2019-01-17T10:24:37.200Z,929.24
2019-01-17T10:25:37.245Z,929.23
2019-01-17T10:26:37.315Z,929.27
2019-01-17T10:27:37.381Z,929.25
2019-01-17T10:28:37.439Z,929.25
2019-01-17T10:29:37.448Z,929.29
2019-01-17T10:30:37.508Z,929.27
2019-01-17T10:31:37.591Z,929.28
2019-01-17T10:32:37.599Z,929.27
2019-01-17T10:33:37.659Z,929.33
2019-01-17T10:34:37.724Z,929.31
2019-01-17T10:35:37.770Z,929.36
2019-01-17T10:36:37.807Z,929.39
2019-01-17T10:37:37.932Z,929.41
2019-01-17T10:38:37.928Z,929.43
2019-01-17T10:39:38.029Z,929.48
2019-01-17T10:40:38.035Z,929.47
2019-01-17T10:41:38.103Z,929.46
2019-01-17T10:42:38.134Z,929.45
2019-01-17T10:43:38.200Z,929.45
2019-01-17T10:44:38.253Z,929.46
2019-01-17T10:45:39.475Z,929.47
2019-01-17T10:46:38.359Z,929.44
2019-01-17T10:47:38.430Z,929.45
2019-01-17T10:48:38.461Z,929.43
2019-01-17T10:49:38.541Z,929.39
2019-01-17T10:50:38.564Z,929.41
2019-01-17T10:51:38.613Z,929.37
2019-01-17T10:52:38.666Z,929.39
2019-01-17T10:53:38.746Z,929.35
2019-01-17T10:54:38.771Z,929.44
2019-01-17T10:56:41.533Z,929.51
2019-01-17T10:57:38.940Z,929.56
2019-01-17T10:58:39.013Z,929.58
2019-01-17T10:59:39.089Z,929.57
2019-01-17T11:00:39.141Z,929.61
2019-01-17T11:01:39.201Z,929.57
2019-01-17T11:02:39.222Z,929.62
2019-01-17T11:03:39.251Z,929.56
2019-01-17T11:04:39.329Z,929.57
2019-01-17T11:05:39.378Z,929.57
2019-01-17T11:06:39.431Z,929.55
2019-01-17T11:07:39.524Z,929.61
2019-01-17T11:08:39.535Z,929.54
2019-01-17T11:09:39.575Z,929.58
2019-01-17T11:10:39.626Z,929.58
2019-01-17T11:11:39.682Z,929.59
2019-01-17T11:12:39.898Z,929.62
2019-01-17T11:13:39.820Z,929.60
2019-01-17T11:14:39.853Z,929.65
2019-01-17T11:15:39.909Z,929.65
2019-01-17T11:16:39.967Z,929.67
2019-01-17T11:17:40.031Z,929.63
2019-01-17T11:18:40.158Z,929.64
2019-01-17T11:19:40.117Z,929.68
2019-01-17T11:20:40.181Z,929.63
2019-01-17T11:21:40.212Z,929.69
2019-01-17T11:22:40.296Z,929.69
2019-01-17T11:23:40.353Z,929.69
2019-01-17T11:24:40.416Z,929.69
2019-01-17T11:25:40.470Z,929.70
2019-01-17T11:26:40.507Z,929.68
2019-01-17T11:27:40.552Z,929.67
2019-01-17T11:28:40.619Z,929.70
2019-01-17T11:29:40.699Z,929.69
2019-01-17T11:30:40.754Z,929.73
2019-01-17T11:31:40.804Z,929.73
2019-01-17T11:32:40.834Z,929.71
2019-01-17T11:33:40.940Z,929.66
2019-01-17T11:34:40.969Z,929.67
2019-01-17T11:35:41.059Z,929.69
2019-01-17T11:36:41.086Z,929.70
2019-01-17T11:37:41.140Z,929.68
2019-01-17T11:38:41.204Z,929.70
2019-01-17T11:39:41.259Z,929.70
2019-01-17T11:40:41.307Z,929.76
2019-01-17T11:41:41.366Z,929.75
2019-01-17T11:42:41.530Z,929.77
2019-01-17T11:43:41.471Z,929.82
2019-01-17T11:44:41.494Z,929.82
2019-01-17T11:45:41.575Z,929.90
2019-01-17T11:46:41.642Z,929.89
2019-01-17T11:47:41.675Z,929.89
2019-01-17T11:48:41.853Z,929.96
2019-01-17T11:49:41.811Z,929.89
2019-01-17T11:50:41.885Z,929.91
2019-01-17T11:51:41.943Z,929.91
2019-01-17T11:52:41.986Z,929.93
2019-01-17T11:53:42.025Z,929.96
2019-01-17T11:54:42.097Z,929.94
2019-01-17T11:55:42.140Z,929.95
2019-01-17T11:56:42.202Z,929.91
2019-01-17T11:57:42.294Z,929.95
2019-01-17T11:58:42.331Z,929.96
2019-01-17T11:59:42.374Z,929.97
2019-01-17T12:00:42.542Z,929.97
2019-01-17T12:01:42.503Z,930.03
2019-01-17T12:02:42.535Z,930.02
2019-01-17T12:03:42.630Z,930.06
2019-01-17T12:04:42.664Z,930.05
2019-01-17T12:05:42.710Z,930.08
2019-01-17T12:06:42.779Z,930.10
2019-01-17T12:07:42.848Z,930.12
2019-01-17T12:08:42.907Z,930.11
2019-01-17T12:09:42.961Z,930.11
2019-01-17T12:10:43.012Z,930.10
2019-01-17T12:11:43.072Z,930.08
2019-01-17T12:12:43.137Z,930.08
2019-01-17T12:13:43.190Z,930.10
2019-01-17T12:14:43.254Z,930.10
2019-01-17T12:15:43.315Z,930.08
2019-01-17T12:16:43.351Z,930.11
2019-01-17T12:17:43.436Z,930.08
2019-01-17T12:18:43.505Z,930.11
2019-01-17T12:19:43.549Z,930.11
2019-01-17T12:20:43.597Z,930.11
2019-01-17T12:21:43.662Z,930.15
2019-01-17T12:22:43.743Z,930.16
2019-01-17T12:23:43.762Z,930.15
2019-01-17T12:24:43.839Z,930.20
2019-01-17T12:25:43.898Z,930.21
2019-01-17T12:26:47.440Z,930.19
2019-01-17T12:27:44.002Z,930.17
2019-01-17T12:28:44.065Z,930.16
2019-01-17T12:29:44.142Z,930.15